This is the latest recevied weather packets stored in our database for station/object N5ZKK. If no packets are shown the sender has not sent any weather packets the latest 10 day(s).
| Time | Temp. | Humidity | Pressure | Rain* | Wind** | Luminosity | Snow |
|---|---|---|---|---|---|---|---|
| 1777457116 | 23.89° C | 99% | 1014 hPa | 0 mm | - | - | - |
| 1777456518 | 23.89° C | 99% | 1013.9 hPa | 0 mm | - | - | - |
| 1777452324 | 23.89° C | 99% | 1014.3 hPa | 0 mm | - | - | - |
| 1777450531 | 23.89° C | 99% | 1014.3 hPa | 0 mm | - | - | - |
| 1777446926 | 23.33° C | 99% | 1014.8 hPa | 0 mm | - | - | - |
| 1777445750 | 23.33° C | 99% | 1014.9 hPa | 0 mm | - | - | - |
| 1777445126 | 23.33° C | 99% | 1014.8 hPa | 0 mm | - | - | - |
| 1777435526 | 22.78° C | 99% | 1014.7 hPa | 0 mm | - | - | - |
| 1777428931 | 25° C | 94% | 1014 hPa | 0 mm | - | - | - |
| 1777427120 | 25.56° C | 93% | 1014 hPa | 0 mm | - | - | - |
| 1777423553 | 27.22° C | 87% | 1013.3 hPa | 0 mm | - | - | - |
| 1777415739 | 29.44° C | 79% | 1013.8 hPa | 0 mm | - | - | - |
| 1777413316 | 28.89° C | 80% | 1014.1 hPa | 0 mm | - | - | - |
| 1777410925 | 29.44° C | 78% | 1014.5 hPa | 0 mm | - | - | - |
| 1777405547 | 29.44° C | 76% | 1015.5 hPa | 0 mm | - | - | - |
| 1777404331 | 28.89° C | 78% | 1015.7 hPa | 0 mm | - | - | - |
| 1777403117 | 28.89° C | 79% | 1016 hPa | 0 mm | - | - | - |
| 1777398317 | 25.56° C | 89% | 1016.4 hPa | 0 mm | - | - | - |
| 1777396517 | 25° C | 93% | 1016.4 hPa | 0 mm | - | - | - |
| 1777393516 | 24.44° C | 93% | 1016.1 hPa | 0 mm | - | - | - |
| 1777391145 | 24.44° C | 92% | 1015.7 hPa | 0 mm | - | - | - |
| 1777390527 | 25° C | 92% | 1015.6 hPa | 0 mm | - | - | - |
| 1777385148 | 25° C | 92% | 1015.9 hPa | 0 mm | - | - | - |
| 1777383932 | 24.44° C | 95% | 1015.6 hPa | 0 mm | - | - | - |
| 1777377953 | 23.33° C | 98% | 1014.9 hPa | 0 mm | - | - | - |
* Rain latest hour (hover to see other rain measurements)
** Current wind speed in m/s (hover to see current wind gust speed)